createdAt,value
2022-09-24T00:00:00.982Z,74.13
2022-09-24T00:00:32.639Z,74.35
2022-09-24T00:01:09.924Z,73.95
2022-09-24T00:01:46.406Z,74.95
2022-09-24T00:02:18.164Z,75.15
2022-09-24T00:02:49.893Z,74.75
2022-09-24T00:03:22.288Z,74.97
2022-09-24T00:03:55.832Z,74.00
2022-09-24T00:04:27.603Z,75.28
2022-09-24T00:04:59.248Z,74.57
2022-09-24T00:05:31.937Z,75.97
2022-09-24T00:06:04.538Z,74.57
2022-09-24T00:06:37.049Z,75.30
2022-09-24T00:07:09.657Z,74.93
2022-09-24T00:07:41.229Z,74.10
2022-09-24T00:08:13.145Z,75.45
2022-09-24T00:08:45.179Z,75.32
2022-09-24T00:09:21.984Z,75.55
2022-09-24T00:09:53.772Z,74.70
2022-09-24T00:10:25.380Z,74.88
2022-09-24T00:10:58.146Z,74.78
2022-09-24T00:11:29.889Z,74.25
2022-09-24T00:12:04.702Z,74.23
2022-09-24T00:12:37.514Z,74.18
2022-09-24T00:13:10.145Z,75.43
2022-09-24T00:13:41.974Z,74.72
2022-09-24T00:14:14.585Z,75.63
2022-09-24T00:14:46.182Z,75.72
2022-09-24T00:15:17.981Z,74.60
2022-09-24T00:15:50.531Z,75.75
2022-09-24T00:16:25.746Z,75.63
2022-09-24T00:16:57.566Z,75.43
2022-09-24T00:17:29.188Z,74.07
2022-09-24T00:18:01.982Z,75.00
2022-09-24T00:18:35.044Z,73.65
2022-09-24T00:19:06.941Z,76.18
2022-09-24T00:19:38.562Z,75.22
2022-09-24T00:20:12.257Z,75.50
2022-09-24T00:20:44.663Z,75.50
2022-09-24T00:21:17.075Z,76.87
2022-09-24T00:21:49.705Z,75.53
2022-09-24T00:22:21.348Z,74.13
2022-09-24T00:22:52.945Z,75.03
2022-09-24T00:23:24.609Z,76.95
2022-09-24T00:23:58.460Z,76.05
2022-09-24T00:24:56.853Z,75.07
2022-09-24T00:25:47.102Z,76.45
2022-09-24T00:26:37.447Z,75.82
2022-09-24T00:27:11.651Z,77.85
2022-09-24T00:27:44.235Z,75.28
2022-09-24T00:28:16.173Z,75.95
2022-09-24T00:28:49.392Z,76.25
2022-09-24T00:29:22.054Z,75.45
2022-09-24T00:29:54.676Z,76.65
2022-09-24T00:30:26.308Z,76.72
2022-09-24T00:30:59.132Z,75.57
2022-09-24T00:31:32.474Z,75.03
2022-09-24T00:32:05.002Z,75.32
2022-09-24T00:32:36.625Z,75.13
2022-09-24T00:33:08.335Z,76.15
2022-09-24T00:33:40.986Z,76.88
2022-09-24T00:34:12.565Z,76.25
2022-09-24T00:34:44.234Z,76.72
2022-09-24T00:35:16.921Z,75.55
2022-09-24T00:35:48.577Z,76.30
2022-09-24T00:36:20.888Z,75.93
2022-09-24T00:36:54.210Z,74.40
2022-09-24T00:37:25.870Z,76.63
2022-09-24T00:37:58.262Z,76.53
2022-09-24T00:38:31.019Z,76.82
2022-09-24T00:39:02.665Z,77.30
2022-09-24T00:39:35.388Z,76.95
2022-09-24T00:40:07.919Z,76.75
2022-09-24T00:40:39.696Z,76.97
2022-09-24T00:41:11.342Z,78.03
2022-09-24T00:41:48.857Z,76.68
2022-09-24T00:42:22.885Z,77.07
2022-09-24T00:42:54.536Z,75.55
2022-09-24T00:43:28.262Z,76.50
2022-09-24T00:44:00.644Z,76.72
2022-09-24T00:44:45.516Z,77.28
2022-09-24T00:45:18.191Z,77.20
2022-09-24T00:45:50.623Z,78.35
2022-09-24T00:46:25.883Z,75.65
2022-09-24T00:46:58.599Z,76.60
2022-09-24T00:47:35.095Z,76.35
2022-09-24T00:48:08.107Z,76.45
2022-09-24T00:48:41.046Z,75.05
2022-09-24T00:49:13.627Z,76.22
2022-09-24T00:49:47.979Z,76.32
2022-09-24T00:50:21.942Z,75.85
2022-09-24T00:50:54.251Z,74.88
2022-09-24T00:51:26.934Z,74.90
2022-09-24T00:51:58.590Z,75.88
2022-09-24T00:52:31.256Z,76.93
2022-09-24T00:53:05.006Z,75.68
2022-09-24T00:53:36.814Z,77.18
2022-09-24T00:54:11.433Z,76.47
2022-09-24T00:54:44.337Z,78.05
2022-09-24T00:55:16.607Z,77.18
2022-09-24T00:55:50.698Z,75.67
2022-09-24T00:56:23.878Z,77.35
2022-09-24T00:56:56.855Z,75.25
2022-09-24T00:57:30.014Z,76.72
2022-09-24T00:58:04.224Z,75.25
2022-09-24T00:58:36.056Z,75.53
2022-09-24T00:59:11.287Z,76.10
2022-09-24T00:59:43.481Z,76.28
2022-09-24T01:00:16.261Z,76.82
2022-09-24T01:00:48.427Z,76.35
2022-09-24T01:01:21.074Z,76.85
2022-09-24T01:01:59.171Z,77.22
2022-09-24T01:02:32.097Z,76.75
2022-09-24T01:03:07.029Z,78.22
2022-09-24T01:03:42.335Z,77.88
2022-09-24T01:04:14.843Z,76.43
2022-09-24T01:04:48.413Z,75.25
2022-09-24T01:05:21.076Z,76.68
2022-09-24T01:05:52.796Z,77.70
2022-09-24T01:06:24.862Z,76.32
2022-09-24T01:06:57.536Z,77.15
2022-09-24T01:07:29.279Z,76.97
2022-09-24T01:08:00.995Z,77.35
2022-09-24T01:08:33.681Z,75.10
2022-09-24T01:09:05.359Z,77.97
2022-09-24T01:09:37.000Z,78.20
2022-09-24T01:10:10.086Z,77.88
2022-09-24T01:10:48.089Z,77.68
2022-09-24T01:11:25.427Z,76.65
2022-09-24T01:12:01.397Z,77.60
2022-09-24T01:12:39.611Z,77.57
2022-09-24T01:13:14.958Z,77.93
2022-09-24T01:13:57.167Z,76.60
2022-09-24T01:14:43.743Z,78.72
2022-09-24T01:15:19.623Z,78.93
2022-09-24T01:15:55.796Z,77.32
2022-09-24T01:16:33.191Z,79.03
2022-09-24T01:17:12.375Z,78.35
2022-09-24T01:17:47.631Z,78.63
2022-09-24T01:18:26.249Z,79.60
2022-09-24T01:19:00.856Z,76.78
2022-09-24T01:19:55.284Z,78.88
2022-09-24T01:20:45.504Z,78.20
2022-09-24T01:21:31.833Z,80.32
2022-09-24T01:22:05.028Z,78.47
2022-09-24T01:22:43.052Z,79.32
2022-09-24T01:23:29.468Z,77.18
2022-09-24T01:24:08.106Z,80.32
2022-09-24T01:24:48.947Z,78.35
2022-09-24T01:25:25.248Z,78.72
2022-09-24T01:26:04.752Z,78.68
2022-09-24T01:26:48.124Z,79.45
2022-09-24T01:27:22.676Z,79.53
2022-09-24T01:28:02.552Z,77.90
2022-09-24T01:28:38.912Z,79.15
2022-09-24T01:29:41.956Z,78.28
2022-09-24T01:30:15.280Z,77.70
2022-09-24T01:30:49.633Z,76.50
2022-09-24T01:31:25.353Z,77.88
2022-09-24T01:32:00.244Z,78.40
2022-09-24T01:32:37.288Z,79.25
2022-09-24T01:33:13.754Z,79.32
2022-09-24T01:33:46.482Z,79.57
2022-09-24T01:34:22.954Z,81.88
2022-09-24T01:34:59.276Z,81.30
2022-09-24T01:35:34.838Z,80.10
2022-09-24T01:36:08.568Z,81.60
2022-09-24T01:36:41.654Z,82.05
2022-09-24T01:37:14.717Z,81.10
2022-09-24T01:37:49.340Z,82.25
2022-09-24T01:38:23.438Z,83.20
2022-09-24T01:38:55.551Z,82.63
2022-09-24T01:39:27.485Z,83.57
2022-09-24T01:39:59.550Z,83.05
2022-09-24T01:40:32.913Z,83.45
2022-09-24T01:41:04.976Z,82.15
2022-09-24T01:41:37.091Z,80.82
2022-09-24T01:42:11.214Z,76.35
2022-09-24T01:42:43.691Z,79.28
2022-09-24T01:43:16.634Z,81.55
2022-09-24T01:43:50.076Z,83.82
2022-09-24T01:44:21.742Z,80.70
2022-09-24T01:44:54.417Z,81.63
2022-09-24T01:45:30.104Z,81.25
2022-09-24T01:46:04.229Z,80.72
2022-09-24T01:46:38.073Z,82.13
2022-09-24T01:47:10.442Z,81.63
2022-09-24T01:47:43.302Z,79.78
2022-09-24T01:48:15.219Z,81.82
2022-09-24T01:48:47.071Z,81.25
2022-09-24T01:49:19.693Z,82.03
2022-09-24T01:49:53.762Z,81.72
2022-09-24T01:50:28.129Z,82.03
2022-09-24T01:51:02.683Z,76.55
2022-09-24T01:51:38.192Z,78.05
2022-09-24T01:52:14.235Z,73.20
2022-09-24T01:52:49.252Z,69.90
2022-09-24T01:53:22.945Z,72.85
2022-09-24T01:53:58.109Z,73.05
2022-09-24T01:54:32.976Z,73.10
2022-09-24T01:55:06.444Z,73.78
2022-09-24T01:55:43.563Z,72.28
2022-09-24T01:56:16.924Z,70.38
2022-09-24T01:56:50.378Z,69.38
2022-09-24T01:57:25.112Z,67.03
2022-09-24T01:57:59.906Z,67.72
2022-09-24T01:58:34.644Z,66.60
2022-09-24T01:59:10.426Z,66.43
2022-09-24T01:59:44.113Z,65.53
2022-09-24T02:00:18.147Z,64.90
2022-09-24T02:00:54.023Z,63.53
2022-09-24T02:01:29.498Z,63.33
2022-09-24T02:02:04.357Z,62.58
2022-09-24T02:02:38.167Z,62.05
2022-09-24T02:03:11.601Z,62.45
2022-09-24T02:03:46.607Z,61.58
2022-09-24T02:04:20.055Z,60.20
2022-09-24T02:04:53.535Z,60.45
2022-09-24T02:05:30.782Z,61.13
2022-09-24T02:06:04.753Z,59.88
2022-09-24T02:06:38.643Z,61.25
2022-09-24T02:07:13.465Z,61.40
2022-09-24T02:07:47.407Z,59.28
2022-09-24T02:08:20.090Z,59.28
2022-09-24T02:08:52.848Z,59.45
2022-09-24T02:09:33.914Z,58.25
2022-09-24T02:10:06.098Z,58.85
2022-09-24T02:10:42.402Z,57.35
2022-09-24T02:11:16.063Z,57.65
2022-09-24T02:11:50.938Z,57.60
2022-09-24T02:12:29.614Z,57.78
2022-09-24T02:13:03.731Z,57.15
2022-09-24T02:13:40.262Z,57.13
2022-09-24T02:14:15.208Z,57.58
2022-09-24T02:14:48.929Z,56.93
2022-09-24T02:15:22.307Z,56.45
2022-09-24T02:15:59.544Z,56.28
2022-09-24T02:16:34.733Z,56.33
2022-09-24T02:17:06.959Z,57.05
2022-09-24T02:17:41.913Z,55.72
2022-09-24T02:18:15.161Z,56.47
2022-09-24T02:18:48.097Z,55.33
2022-09-24T02:19:23.102Z,55.77
2022-09-24T02:19:55.803Z,55.97
2022-09-24T02:20:29.220Z,55.53
2022-09-24T02:21:04.085Z,56.08
2022-09-24T02:21:36.848Z,56.10
2022-09-24T02:22:09.390Z,57.30
2022-09-24T02:22:41.748Z,54.90
2022-09-24T02:23:16.179Z,56.50
2022-09-24T02:23:49.344Z,56.67
2022-09-24T02:24:23.019Z,56.72
2022-09-24T02:24:57.002Z,56.42
2022-09-24T02:25:31.186Z,56.30
2022-09-24T02:26:03.898Z,57.20
2022-09-24T02:26:36.563Z,56.17
2022-09-24T02:27:08.668Z,55.92
2022-09-24T02:27:40.911Z,56.75
2022-09-24T02:28:13.505Z,55.85
2022-09-24T02:28:45.571Z,56.90
2022-09-24T02:29:18.441Z,57.17
2022-09-24T02:29:51.762Z,55.78
2022-09-24T02:30:23.383Z,56.53
2022-09-24T02:31:00.671Z,56.58
2022-09-24T02:31:34.809Z,55.90
2022-09-24T02:32:09.347Z,57.13
2022-09-24T02:32:41.994Z,56.17
2022-09-24T02:33:30.107Z,56.95
2022-09-24T02:34:22.322Z,56.72
2022-09-24T02:34:55.773Z,56.55
2022-09-24T02:35:28.414Z,56.10
2022-09-24T02:36:00.208Z,55.78
2022-09-24T02:36:32.025Z,56.28
2022-09-24T02:37:05.995Z,56.42
2022-09-24T02:37:39.814Z,56.17
2022-09-24T02:38:16.066Z,55.35
2022-09-24T02:38:47.671Z,56.38
2022-09-24T02:39:20.288Z,56.38
2022-09-24T02:39:52.037Z,57.05
2022-09-24T02:40:23.855Z,56.53
2022-09-24T02:40:56.907Z,55.60
2022-09-24T02:41:30.077Z,57.05
2022-09-24T02:42:06.033Z,56.05
2022-09-24T02:42:39.278Z,55.58
2022-09-24T02:43:10.906Z,56.22
2022-09-24T02:43:42.559Z,56.10
2022-09-24T02:44:15.661Z,55.67
2022-09-24T02:44:47.517Z,56.28
2022-09-24T02:45:20.141Z,55.92
2022-09-24T02:45:51.734Z,56.08
2022-09-24T02:46:24.793Z,55.78
2022-09-24T02:46:57.662Z,55.90
2022-09-24T02:47:30.356Z,56.55
2022-09-24T02:48:02.924Z,56.70
2022-09-24T02:48:35.633Z,56.83
2022-09-24T02:49:07.297Z,56.42
2022-09-24T02:49:40.020Z,56.72
2022-09-24T02:50:11.612Z,56.08
2022-09-24T02:50:43.271Z,55.45
2022-09-24T02:51:15.890Z,56.65
2022-09-24T02:51:47.579Z,55.10
2022-09-24T02:52:19.714Z,55.70
2022-09-24T02:52:53.039Z,55.97
2022-09-24T02:53:24.688Z,56.45
2022-09-24T02:53:56.299Z,56.25
2022-09-24T02:54:29.132Z,55.47
2022-09-24T02:55:00.777Z,56.72
2022-09-24T02:55:32.610Z,56.50
2022-09-24T02:56:04.290Z,56.72
2022-09-24T02:56:37.301Z,55.42
2022-09-24T02:57:09.002Z,56.28
2022-09-24T02:57:40.720Z,55.95
2022-09-24T02:58:13.387Z,56.35
2022-09-24T02:58:45.125Z,56.30
2022-09-24T02:59:17.096Z,56.08
2022-09-24T02:59:49.768Z,57.22
2022-09-24T03:00:21.499Z,56.90
2022-09-24T03:00:53.742Z,55.95
2022-09-24T03:01:27.806Z,55.80
2022-09-24T03:01:59.571Z,56.47
2022-09-24T03:02:31.385Z,56.45
2022-09-24T03:03:03.211Z,56.28
2022-09-24T03:03:35.905Z,56.47
2022-09-24T03:04:07.690Z,55.65
2022-09-24T03:04:39.480Z,56.90
2022-09-24T03:05:12.539Z,55.60
2022-09-24T03:05:44.432Z,56.10
2022-09-24T03:06:16.173Z,56.75
2022-09-24T03:06:48.842Z,57.22
2022-09-24T03:07:22.518Z,56.08
2022-09-24T03:07:55.030Z,56.22
2022-09-24T03:08:28.222Z,56.08
2022-09-24T03:09:03.257Z,56.25
2022-09-24T03:09:34.860Z,56.92
2022-09-24T03:10:08.145Z,55.95
2022-09-24T03:10:39.780Z,56.97
2022-09-24T03:11:16.322Z,55.97
2022-09-24T03:11:50.675Z,55.75
2022-09-24T03:12:22.401Z,56.88
2022-09-24T03:12:54.095Z,56.95
2022-09-24T03:13:26.661Z,56.50
2022-09-24T03:13:58.608Z,56.78
2022-09-24T03:14:30.293Z,56.25
2022-09-24T03:15:02.885Z,55.83
2022-09-24T03:15:34.495Z,56.42
2022-09-24T03:16:06.965Z,55.58
2022-09-24T03:16:40.018Z,55.65
2022-09-24T03:17:13.218Z,57.65
2022-09-24T03:17:45.167Z,55.67
2022-09-24T03:18:16.813Z,57.15
2022-09-24T03:18:49.669Z,56.25
2022-09-24T03:19:21.352Z,56.33
2022-09-24T03:19:53.032Z,56.47
2022-09-24T03:20:25.725Z,55.70
2022-09-24T03:20:58.223Z,56.28
2022-09-24T03:21:30.189Z,56.50
2022-09-24T03:22:02.904Z,55.92
2022-09-24T03:22:34.633Z,56.88
2022-09-24T03:23:06.332Z,56.17
2022-09-24T03:23:38.606Z,55.60
2022-09-24T03:24:11.246Z,55.85
2022-09-24T03:24:42.977Z,55.22
2022-09-24T03:25:14.708Z,56.05
2022-09-24T03:25:47.494Z,57.45
2022-09-24T03:26:19.184Z,56.42
2022-09-24T03:26:51.120Z,56.10
2022-09-24T03:27:25.216Z,55.80
2022-09-24T03:27:57.869Z,55.53
2022-09-24T03:28:29.814Z,55.92
2022-09-24T03:29:02.545Z,55.85
2022-09-24T03:29:52.605Z,55.28
2022-09-24T03:30:42.579Z,55.88
2022-09-24T03:31:14.678Z,54.90
2022-09-24T03:31:47.963Z,56.70
2022-09-24T03:32:20.090Z,55.42
2022-09-24T03:32:52.740Z,55.22
2022-09-24T03:33:24.387Z,56.35
2022-09-24T03:33:57.461Z,56.65
2022-09-24T03:34:30.118Z,56.42
2022-09-24T03:35:02.732Z,55.72
2022-09-24T03:35:34.374Z,55.53
2022-09-24T03:36:07.705Z,55.90
2022-09-24T03:36:39.565Z,55.88
2022-09-24T03:37:11.307Z,56.58
2022-09-24T03:37:48.939Z,55.80
2022-09-24T03:38:20.907Z,55.03
2022-09-24T03:38:56.257Z,56.33
2022-09-24T03:39:29.377Z,56.90
2022-09-24T03:40:01.352Z,55.88
2022-09-24T03:40:33.117Z,55.33
2022-09-24T03:41:06.538Z,56.38
2022-09-24T03:41:38.166Z,55.85
2022-09-24T03:42:09.809Z,55.33
2022-09-24T03:42:42.549Z,55.40
2022-09-24T03:43:14.291Z,55.20
2022-09-24T03:43:46.867Z,55.58
2022-09-24T03:44:18.587Z,55.45
2022-09-24T03:44:50.542Z,55.58
2022-09-24T03:45:23.216Z,55.88
2022-09-24T03:45:55.342Z,55.47
2022-09-24T03:46:28.547Z,55.38
2022-09-24T03:47:01.688Z,55.97
2022-09-24T03:47:33.319Z,55.25
2022-09-24T03:48:06.542Z,55.45
2022-09-24T03:48:39.893Z,56.28
2022-09-24T03:49:11.660Z,56.97
2022-09-24T03:49:43.397Z,55.67
2022-09-24T03:50:17.278Z,55.85
2022-09-24T03:50:49.323Z,55.65
2022-09-24T03:51:21.042Z,55.50
2022-09-24T03:51:53.689Z,55.25
2022-09-24T03:52:25.943Z,56.28
2022-09-24T03:52:57.566Z,56.15
2022-09-24T03:53:30.167Z,56.38
2022-09-24T03:54:01.918Z,56.38
2022-09-24T03:54:33.706Z,56.08
2022-09-24T03:55:06.828Z,56.47
2022-09-24T03:55:42.279Z,55.47
2022-09-24T03:56:14.937Z,55.33
2022-09-24T03:56:46.576Z,56.97
2022-09-24T03:57:18.273Z,55.67
2022-09-24T03:57:50.966Z,55.03
2022-09-24T03:58:23.022Z,55.60
2022-09-24T03:58:54.669Z,55.67
2022-09-24T03:59:27.243Z,55.40
2022-09-24T03:59:59.430Z,55.85
2022-09-24T04:00:31.018Z,55.45
2022-09-24T04:01:03.640Z,55.75
2022-09-24T04:01:37.315Z,56.00
2022-09-24T04:02:10.626Z,56.22
2022-09-24T04:02:43.581Z,55.75
2022-09-24T04:03:15.316Z,55.63
2022-09-24T04:03:47.021Z,56.10
2022-09-24T04:04:19.764Z,55.75
2022-09-24T04:04:52.163Z,55.80
2022-09-24T04:05:23.932Z,56.35
2022-09-24T04:05:56.530Z,56.45
2022-09-24T04:06:28.140Z,55.83
2022-09-24T04:06:59.964Z,56.10
2022-09-24T04:07:31.728Z,56.60
2022-09-24T04:08:05.135Z,55.67
2022-09-24T04:08:36.757Z,56.13
2022-09-24T04:09:09.349Z,55.58
2022-09-24T04:09:42.263Z,55.38
2022-09-24T04:10:14.349Z,55.67
2022-09-24T04:10:46.402Z,55.40
2022-09-24T04:11:19.020Z,55.55
2022-09-24T04:11:52.788Z,55.80
2022-09-24T04:12:24.551Z,55.10
2022-09-24T04:12:57.154Z,55.03
2022-09-24T04:13:28.863Z,56.97
2022-09-24T04:14:00.606Z,55.72
2022-09-24T04:14:33.278Z,55.55
2022-09-24T04:15:05.338Z,55.80
2022-09-24T04:15:37.030Z,56.00
2022-09-24T04:16:09.766Z,56.05
2022-09-24T04:16:41.529Z,55.05
2022-09-24T04:17:15.006Z,55.83
2022-09-24T04:17:50.560Z,55.92
2022-09-24T04:18:22.427Z,56.97
2022-09-24T04:18:55.519Z,55.57
2022-09-24T04:19:27.148Z,56.53
2022-09-24T04:20:01.144Z,55.60
2022-09-24T04:20:34.888Z,56.45
2022-09-24T04:21:06.767Z,54.75
2022-09-24T04:21:38.413Z,57.88
2022-09-24T04:22:10.047Z,55.45
2022-09-24T04:22:42.614Z,56.08
2022-09-24T04:23:14.582Z,55.53
2022-09-24T04:23:46.202Z,55.10
2022-09-24T04:24:18.982Z,56.03
2022-09-24T04:24:51.302Z,55.85
2022-09-24T04:25:23.460Z,57.67
2022-09-24T04:25:56.051Z,55.92
2022-09-24T04:26:27.729Z,56.65
2022-09-24T04:26:59.384Z,55.70
2022-09-24T04:27:32.130Z,55.75
2022-09-24T04:28:04.682Z,55.67
2022-09-24T04:28:36.323Z,55.75
2022-09-24T04:29:09.500Z,55.85
2022-09-24T04:29:41.120Z,56.65
2022-09-24T04:30:13.864Z,55.58
2022-09-24T04:30:46.569Z,56.33
2022-09-24T04:31:18.337Z,55.75
2022-09-24T04:31:50.170Z,56.70
2022-09-24T04:32:24.185Z,56.03
2022-09-24T04:32:55.902Z,55.47
2022-09-24T04:33:27.539Z,55.92
2022-09-24T04:34:00.573Z,56.15
2022-09-24T04:34:33.321Z,56.03
2022-09-24T04:35:07.599Z,55.72
2022-09-24T04:35:40.488Z,55.63
2022-09-24T04:36:12.106Z,56.05
2022-09-24T04:36:43.879Z,55.33
2022-09-24T04:37:15.536Z,56.88
2022-09-24T04:37:48.480Z,55.80
2022-09-24T04:38:21.410Z,56.83
2022-09-24T04:38:53.238Z,56.20
2022-09-24T04:39:27.373Z,56.22
2022-09-24T04:39:59.563Z,56.80
2022-09-24T04:40:31.292Z,57.08
2022-09-24T04:41:07.418Z,56.75
2022-09-24T04:41:40.230Z,56.25
2022-09-24T04:42:16.090Z,55.50
2022-09-24T04:42:48.852Z,55.88
2022-09-24T04:43:20.554Z,55.17
2022-09-24T04:43:52.171Z,56.38
2022-09-24T04:44:24.798Z,57.30
2022-09-24T04:44:56.496Z,56.17
2022-09-24T04:45:28.111Z,55.67
2022-09-24T04:46:02.016Z,55.13
2022-09-24T04:46:34.361Z,55.38
2022-09-24T04:47:08.783Z,56.17
2022-09-24T04:47:42.829Z,56.70
2022-09-24T04:48:14.765Z,56.35
2022-09-24T04:48:46.421Z,55.78
2022-09-24T04:49:19.022Z,57.30
2022-09-24T04:49:50.675Z,55.35
2022-09-24T04:50:22.497Z,56.15
2022-09-24T04:50:58.653Z,55.20
2022-09-24T04:51:33.878Z,55.60
2022-09-24T04:52:05.537Z,56.03
2022-09-24T04:52:38.251Z,54.95
2022-09-24T04:53:09.934Z,54.08
2022-09-24T04:53:42.588Z,55.35
2022-09-24T04:54:14.212Z,55.03
2022-09-24T04:54:47.483Z,54.85
2022-09-24T04:55:20.722Z,55.25
2022-09-24T04:55:52.372Z,55.72
2022-09-24T04:56:23.988Z,56.47
2022-09-24T04:56:56.591Z,55.40
2022-09-24T04:57:28.946Z,54.35
2022-09-24T04:58:00.678Z,54.88
2022-09-24T04:58:33.360Z,55.40
2022-09-24T04:59:05.072Z,54.17
2022-09-24T04:59:36.915Z,54.70
2022-09-24T05:00:10.881Z,56.10
2022-09-24T05:00:43.226Z,54.70
2022-09-24T05:01:15.566Z,55.42
2022-09-24T05:01:48.310Z,55.50
2022-09-24T05:02:20.352Z,54.38
2022-09-24T05:02:58.166Z,55.15
2022-09-24T05:03:30.803Z,55.25
2022-09-24T05:04:02.486Z,55.28
2022-09-24T05:04:34.127Z,56.13
2022-09-24T05:05:07.157Z,55.58
2022-09-24T05:05:38.778Z,54.78
2022-09-24T05:06:11.406Z,55.83
2022-09-24T05:06:43.025Z,54.97
2022-09-24T05:07:14.686Z,55.50
2022-09-24T05:07:47.320Z,54.83
2022-09-24T05:08:19.045Z,55.83
2022-09-24T05:08:50.764Z,55.53
2022-09-24T05:09:23.343Z,55.22
2022-09-24T05:09:54.956Z,55.40
2022-09-24T05:10:27.274Z,55.80
2022-09-24T05:11:02.374Z,54.92
2022-09-24T05:11:34.072Z,54.88
2022-09-24T05:12:05.799Z,56.17
2022-09-24T05:12:38.610Z,55.95
2022-09-24T05:13:10.457Z,55.72
2022-09-24T05:13:43.127Z,56.55
2022-09-24T05:14:14.777Z,55.70
2022-09-24T05:14:46.586Z,56.28
2022-09-24T05:15:20.203Z,55.33
2022-09-24T05:15:51.881Z,55.95
2022-09-24T05:16:23.585Z,54.50
2022-09-24T05:16:56.272Z,54.80
2022-09-24T05:17:27.963Z,56.17
2022-09-24T05:18:06.195Z,55.58
2022-09-24T05:18:37.853Z,55.88
2022-09-24T05:19:10.086Z,55.10
2022-09-24T05:19:43.019Z,56.90
2022-09-24T05:20:15.182Z,56.00
2022-09-24T05:20:46.865Z,54.88
2022-09-24T05:21:19.613Z,55.88
2022-09-24T05:21:51.290Z,55.42
2022-09-24T05:22:23.028Z,55.28
2022-09-24T05:22:55.766Z,56.08
2022-09-24T05:23:27.527Z,55.55
2022-09-24T05:23:59.510Z,55.15
2022-09-24T05:24:32.258Z,55.72
2022-09-24T05:25:04.091Z,55.47
2022-09-24T05:25:56.183Z,56.08
2022-09-24T05:26:46.399Z,55.45
2022-09-24T05:27:18.633Z,55.78
2022-09-24T05:27:52.145Z,55.55
2022-09-24T05:28:23.856Z,55.63
2022-09-24T05:28:55.520Z,56.17
2022-09-24T05:29:28.117Z,55.35
2022-09-24T05:30:00.727Z,55.63
2022-09-24T05:30:32.323Z,56.58
2022-09-24T05:31:05.144Z,54.90
2022-09-24T05:31:36.910Z,55.00
2022-09-24T05:32:10.030Z,55.10
2022-09-24T05:32:42.694Z,55.13
2022-09-24T05:33:15.791Z,55.55
2022-09-24T05:33:47.572Z,56.58
2022-09-24T05:34:20.598Z,55.53
2022-09-24T05:34:53.478Z,56.10
2022-09-24T05:35:26.211Z,56.88
2022-09-24T05:35:58.067Z,55.70
2022-09-24T05:36:29.825Z,55.65
2022-09-24T05:37:02.368Z,55.53
2022-09-24T05:37:35.105Z,56.10
2022-09-24T05:38:06.849Z,55.40
2022-09-24T05:38:41.542Z,55.38
2022-09-24T05:39:14.642Z,55.20
2022-09-24T05:39:46.264Z,55.75
2022-09-24T05:40:36.659Z,55.63
2022-09-24T05:41:09.367Z,55.63
2022-09-24T05:41:41.218Z,55.38
2022-09-24T05:42:14.291Z,54.95
2022-09-24T05:42:47.403Z,55.05
2022-09-24T05:43:19.441Z,55.40
2022-09-24T05:43:53.042Z,56.47
2022-09-24T05:44:25.671Z,55.83
2022-09-24T05:44:57.262Z,54.78
2022-09-24T05:45:29.228Z,55.20
2022-09-24T05:46:02.600Z,55.78
2022-09-24T05:46:34.425Z,55.20
2022-09-24T05:47:07.119Z,55.08
2022-09-24T05:47:38.718Z,55.65
2022-09-24T05:48:10.435Z,55.05
2022-09-24T05:48:44.437Z,55.35
2022-09-24T05:49:16.162Z,56.03
2022-09-24T05:49:47.760Z,55.33
2022-09-24T05:50:20.346Z,55.15
2022-09-24T05:50:51.991Z,55.15
2022-09-24T05:51:23.708Z,55.28
2022-09-24T05:51:56.907Z,55.67
2022-09-24T05:52:28.487Z,56.70
2022-09-24T05:53:00.330Z,55.67
2022-09-24T05:53:33.896Z,55.85
2022-09-24T05:54:05.794Z,55.03
2022-09-24T05:54:37.419Z,55.97
2022-09-24T05:55:11.976Z,55.30
2022-09-24T05:55:43.728Z,55.15
2022-09-24T05:56:16.316Z,55.85
2022-09-24T05:56:47.934Z,55.67
2022-09-24T05:57:19.713Z,55.05
2022-09-24T05:57:52.283Z,55.70
2022-09-24T05:58:24.802Z,55.17
2022-09-24T05:58:57.401Z,54.72
2022-09-24T05:59:29.112Z,55.25
2022-09-24T06:00:00.862Z,55.33
2022-09-24T06:00:33.502Z,54.92
2022-09-24T06:01:05.274Z,55.08
2022-09-24T06:01:37.119Z,55.55
2022-09-24T06:02:10.661Z,55.25
2022-09-24T06:02:42.448Z,56.03
2022-09-24T06:03:15.130Z,55.78
2022-09-24T06:03:49.206Z,55.15
2022-09-24T06:04:20.949Z,56.88
2022-09-24T06:04:52.696Z,56.67
2022-09-24T06:05:25.401Z,55.72
2022-09-24T06:05:59.601Z,55.55
2022-09-24T06:06:32.289Z,55.95
2022-09-24T06:07:03.976Z,55.70
2022-09-24T06:07:35.592Z,55.75
2022-09-24T06:08:08.640Z,55.88
2022-09-24T06:08:41.333Z,55.15
2022-09-24T06:09:13.645Z,55.33
2022-09-24T06:09:45.303Z,55.88
2022-09-24T06:10:17.945Z,56.78
2022-09-24T06:10:49.613Z,56.42
2022-09-24T06:11:22.541Z,55.67
2022-09-24T06:11:54.692Z,55.63
2022-09-24T06:12:27.079Z,56.30
2022-09-24T06:12:59.765Z,56.40
2022-09-24T06:13:34.868Z,56.30
2022-09-24T06:14:09.072Z,55.10
2022-09-24T06:14:42.557Z,56.40
2022-09-24T06:15:14.284Z,55.13
2022-09-24T06:15:46.115Z,55.80
2022-09-24T06:16:19.189Z,54.78
2022-09-24T06:16:50.964Z,55.67
2022-09-24T06:17:23.627Z,54.90
2022-09-24T06:17:56.602Z,54.85
2022-09-24T06:18:28.339Z,55.88
2022-09-24T06:19:01.703Z,55.03
2022-09-24T06:19:34.436Z,56.05
2022-09-24T06:20:06.425Z,55.72
2022-09-24T06:20:38.192Z,55.88
2022-09-24T06:21:11.932Z,56.65
2022-09-24T06:21:43.645Z,54.95
2022-09-24T06:22:15.406Z,55.38
2022-09-24T06:22:48.031Z,55.67
2022-09-24T06:23:19.659Z,56.22
2022-09-24T06:23:52.289Z,55.05
2022-09-24T06:24:24.071Z,55.42
2022-09-24T06:24:56.144Z,55.22
2022-09-24T06:25:29.523Z,55.60
2022-09-24T06:26:01.473Z,55.50
2022-09-24T06:26:33.629Z,55.58
2022-09-24T06:27:06.378Z,55.25
2022-09-24T06:27:38.043Z,55.83
2022-09-24T06:28:09.787Z,55.75
2022-09-24T06:28:42.478Z,55.47
2022-09-24T06:29:15.060Z,55.38
2022-09-24T06:29:46.653Z,54.97
2022-09-24T06:30:19.269Z,54.50
2022-09-24T06:30:51.283Z,55.03
2022-09-24T06:31:24.035Z,54.63
2022-09-24T06:31:55.769Z,55.50
2022-09-24T06:32:27.499Z,55.10
2022-09-24T06:33:01.958Z,55.17
2022-09-24T06:33:34.718Z,55.58
2022-09-24T06:34:07.873Z,55.78
2022-09-24T06:34:39.540Z,55.95
2022-09-24T06:35:12.242Z,56.10
2022-09-24T06:35:44.452Z,54.92
2022-09-24T06:36:18.112Z,56.20
2022-09-24T06:36:54.462Z,56.70
2022-09-24T06:37:26.122Z,54.85
2022-09-24T06:37:57.741Z,54.75
2022-09-24T06:38:30.767Z,55.50
2022-09-24T06:39:02.513Z,55.85
2022-09-24T06:39:34.181Z,55.17
2022-09-24T06:40:07.873Z,55.15
2022-09-24T06:40:40.149Z,55.13
2022-09-24T06:41:12.871Z,55.78
2022-09-24T06:41:44.572Z,56.35
2022-09-24T06:42:18.806Z,54.63
2022-09-24T06:42:52.142Z,54.55
2022-09-24T06:43:23.812Z,54.47
2022-09-24T06:43:56.643Z,55.42
2022-09-24T06:44:28.321Z,55.20
2022-09-24T06:44:59.973Z,54.90
2022-09-24T06:45:32.581Z,54.58
2022-09-24T06:46:04.951Z,56.92
2022-09-24T06:46:37.841Z,55.60
2022-09-24T06:47:09.653Z,55.63
2022-09-24T06:47:41.332Z,56.05
2022-09-24T06:48:15.273Z,54.83
2022-09-24T06:48:48.376Z,54.95
2022-09-24T06:49:22.346Z,55.40
2022-09-24T06:49:54.046Z,55.15
2022-09-24T06:50:26.611Z,55.75
2022-09-24T06:50:59.609Z,54.97
2022-09-24T06:51:31.306Z,56.28
2022-09-24T06:52:03.041Z,55.45
2022-09-24T06:52:35.809Z,55.20
2022-09-24T06:53:08.299Z,54.72
2022-09-24T06:53:40.969Z,55.20
2022-09-24T06:54:12.744Z,55.22
2022-09-24T06:54:44.539Z,54.80
2022-09-24T06:55:16.759Z,56.00
2022-09-24T06:55:51.098Z,54.97
2022-09-24T06:56:22.739Z,55.63
2022-09-24T06:56:54.377Z,54.83
2022-09-24T06:57:29.059Z,55.80
2022-09-24T06:58:04.577Z,55.33
2022-09-24T06:58:36.289Z,55.80
2022-09-24T06:59:09.694Z,54.65
2022-09-24T06:59:41.461Z,54.58
2022-09-24T07:00:14.066Z,55.33
2022-09-24T07:00:51.868Z,55.28
2022-09-24T07:01:23.566Z,55.20
2022-09-24T07:01:55.366Z,55.15
2022-09-24T07:02:28.661Z,54.53
2022-09-24T07:03:00.442Z,55.15
2022-09-24T07:03:32.853Z,54.33
2022-09-24T07:04:05.538Z,54.78
2022-09-24T07:04:38.602Z,54.47
2022-09-24T07:05:10.583Z,55.25
2022-09-24T07:05:43.864Z,55.67
2022-09-24T07:06:15.900Z,55.63
2022-09-24T07:07:05.732Z,54.78
2022-09-24T07:07:38.554Z,54.75
2022-09-24T07:08:13.270Z,55.28
2022-09-24T07:08:45.959Z,55.35
2022-09-24T07:09:17.987Z,55.20